Air Resources Laboratory banner image
Air Resources Laboratory web site National Oceanic and Atmospheric Administration (NOAA)

me metar


K8B0 210755Z AUTO 00000KT 10SM CLR 11/10 A3019 RMK AO2=
KAUG 210753Z AUTO 00000KT 1/2SM FG VV002 13/13 A3016 RMK AO2 SLP214 T01330133=
KBGR 210753Z 00000KT 10SM CLR 13/13 A3017 RMK AO2 SLP214 T01330128=
KBHB 210756Z AUTO 00000KT 9SM CLR 11/11 A3017 RMK AO2 SLP220 T01110106 $=
KCAR 210754Z AUTO 00000KT 7SM CLR 11/10 A3015 RMK AO2 SLP213 T01110100=
KFVE 210753Z AUTO 12004KT 10SM CLR 14/11 A3015 RMK AO2 SLP204 T01390106=
KGNR 210756Z AUTO 13003KT 13/12 A3015 RMK AO1 SLP209 T01330122=
KHUL 210753Z AUTO 00000KT 9SM CLR 08/08 A3015 RMK AO2 SLP211 T00830083=
KIWI 210753Z AUTO 00000KT 10SM CLR 10/10 A3017 RMK AO2 SLP217 T01000100=
KIZG 210754Z AUTO 00000KT 1/4SM FG VV002 11/11 A3017 RMK AO2 SLP215 T01060106=
KLEW 210756Z AUTO 00000KT 1/4SM FG OVC002 12/12 A3016 RMK AO2 SLP228 T01170117=
KMLT 210753Z AUTO 00000KT 9SM OVC002 11/11 A3017 RMK AO2 SLP221 T01110106 TSNO=
KPQI 210756Z AUTO 00000KT 1 1/2SM BR BKN002 09/08 A3017 RMK AO2 VIS 1/2V5
 SLP256 T00890083 TSNO=
KPWM 210751Z AUTO 00000KT 10SM CLR 14/13 A3016 RMK AO2 SLP213 T01390133=
KRKD 210756Z AUTO 00000KT 10SM CLR 10/10 A3016 RMK AO2 SLP215 T01000100=
KSFM 210756Z AUTO 00000KT 5SM BR CLR 09/09 A3016 RMK AO2 SLP217 T00940094=
KWVL 210756Z AUTO 00000KT 5SM BR CLR 12/12 A3014 RMK AO2 SLP233 T01220122 $=